Chetek Municipal Southworth A, WI

2:12 PM CDT on March 30, 2017 (GMT -0500)
Chetek Municipal Southworth A

Weather History for KY23 - June, 2014

Change the Weather History Date:

Tuesday, June 10, 2014

  Actual Average (KRPD) Record (KRPD)
Temperature  
Mean Temperature 62 °F -  
Max Temperature 75 °F 71 °F 88 °F (2016)
Min Temperature 48 °F 51 °F 42 °F (2006)
Degree Days  
Heating Degree Days 4    
Growing Degree Days 12 (Base 50)    
Moisture  
Dew Point 51 °F    
Average Humidity 72    
Maximum Humidity 100    
Minimum Humidity 40    
Precipitation  
Precipitation 0.00 in - - ()
Sea Level Pressure  
Sea Level Pressure 29.97 in    
Wind  
Wind Speed 2 mph (East)    
Max Wind Speed 12 mph    
Max Gust Speed -    
Visibility 10 miles    
Events      
Averages and records for this station are not official NWS values.
T = Trace of Precipitation, MM = Missing Value Source: NWS Daily Summary

Daily Weather History Graph

Daily Weather History Graph

Search for Another Location

Airport or City:

Trip Planner

Search our weather history database for the weather conditions in past years. The results will help you decide how hot, cold, wet, or windy it might be!

Date:

Astronomy

Jun. 10, 2014 Rise Set
Actual Time 5:18 AM CDT 8:53 PM CDT
Civil Twilight 4:41 AM CDT 9:31 PM CDT
Nautical Twilight 3:51 AM CDT 10:21 PM CDT
Astronomical Twilight 2:45 AM CDT 11:27 PM CDT
Moon 6:12 PM CDT (6/10) 3:32 AM CDT (6/10)
Length of Visible Light 16h 50m
Length of Day
15h 35m
Waxing Gibbous, 92% of the Moon is Illuminated
Jun 10
Waxing Gibbous
Jun 12
Full
Jun 19
Last Quarter
Jun 27
New
Jul 5
First Quarter

Hourly Weather History & Observations

Time (CDT) Temp. Dew Point Humidity Pressure Visibility Wind Dir Wind Speed Gust Speed Precip Events Conditions
12:15 AM 54.0 °F 53.6 °F 99% 30.00 in 10.0 mi Calm Calm - N/A   Clear
12:35 AM 53.6 °F 53.2 °F 99% 30.00 in 10.0 mi Calm Calm - N/A   Clear
12:55 AM 53.2 °F 53.1 °F 99% 30.00 in 7.0 mi Calm Calm - N/A   Clear
1:15 AM 52.9 °F 52.7 °F 99% 30.00 in 10.0 mi Calm Calm - N/A   Clear
1:35 AM 52.5 °F 52.2 °F 99% 29.99 in 10.0 mi Calm Calm - N/A   Clear
1:55 AM 53.4 °F 51.8 °F 94% 29.99 in 10.0 mi Calm Calm - N/A   Clear
2:15 AM 52.2 °F 51.1 °F 96% 29.99 in 10.0 mi Calm Calm - N/A   Clear
2:35 AM 51.8 °F 51.4 °F 99% 29.99 in 10.0 mi Calm Calm - N/A   Clear
2:55 AM 51.1 °F 50.7 °F 99% 29.99 in 10.0 mi Calm Calm - N/A   Clear
3:15 AM 50.9 °F 50.9 °F 100% 29.99 in 5.0 mi Calm Calm - N/A   Clear
3:35 AM 50.5 °F 50.4 °F 99% 29.99 in 7.0 mi Calm Calm - N/A   Clear
4:15 AM 50.0 °F 49.8 °F 99% 29.99 in 7.0 mi Calm Calm - N/A   Clear
4:35 AM 49.8 °F 49.3 °F 98% 29.99 in 10.0 mi Calm Calm - N/A   Clear
4:55 AM 48.7 °F 48.4 °F 99% 30.00 in 10.0 mi Calm Calm - N/A   Clear
5:15 AM 48.6 °F 48.4 °F 99% 30.00 in 10.0 mi Calm Calm - N/A   Clear
5:35 AM 48.7 °F 48.6 °F 99% 30.00 in 7.0 mi Calm Calm - N/A   Clear
5:55 AM 48.7 °F 48.6 °F 99% 30.00 in 7.0 mi Calm Calm - N/A   Clear
6:15 AM 50.0 °F 49.6 °F 99% 30.01 in 5.0 mi Calm Calm - N/A   Clear
6:35 AM 51.3 °F 50.7 °F 98% 30.01 in 10.0 mi Calm Calm - N/A   Clear
6:55 AM 54.5 °F 50.5 °F 86% 30.01 in 10.0 mi Calm Calm - N/A   Clear
7:15 AM 55.8 °F 51.4 °F 85% 30.01 in 10.0 mi Calm Calm - N/A   Clear
7:35 AM 56.7 °F 51.6 °F 83% 30.01 in 10.0 mi East 3.5 mph - N/A   Clear
7:55 AM 58.1 °F 51.6 °F 79% 30.01 in 10.0 mi Calm Calm - N/A   Clear
8:15 AM 59.5 °F 52.3 °F 77% 30.01 in 10.0 mi East 3.5 mph - N/A   Clear
8:35 AM 61.0 °F 53.4 °F 76% 30.01 in 10.0 mi Calm Calm - N/A   Clear
8:55 AM 61.9 °F 53.8 °F 75% 30.01 in 10.0 mi NNE 4.6 mph - N/A   Clear
9:15 AM 63.3 °F 54.5 °F 73% 30.01 in 10.0 mi Calm Calm - N/A   Clear
9:35 AM 65.5 °F 53.8 °F 66% 30.01 in 10.0 mi East 4.6 mph - N/A   Clear
9:55 AM 66.6 °F 54.0 °F 64% 30.01 in 10.0 mi East 3.5 mph - N/A   Clear
10:15 AM 68.0 °F 53.6 °F 60% 30.00 in 10.0 mi East 3.5 mph - N/A   Clear
10:35 AM 69.4 °F 52.5 °F 55% 30.00 in 10.0 mi ESE 9.2 mph - N/A   Clear
10:55 AM 70.2 °F 48.6 °F 46% 30.00 in 10.0 mi East 8.1 mph - N/A   Clear
11:15 AM 70.3 °F 48.9 °F 47% 30.00 in 10.0 mi ESE 8.1 mph - N/A   Scattered Clouds
11:35 AM 71.2 °F 49.3 °F 46% 29.99 in 10.0 mi East 6.9 mph - N/A   Clear
11:55 AM 72.1 °F 49.5 °F 45% 29.99 in 10.0 mi ESE 6.9 mph - N/A   Clear
12:15 PM 71.8 °F 50.5 °F 47% 29.99 in 10.0 mi ESE 11.5 mph - N/A   Clear
1:15 PM 72.7 °F 50.4 °F 45% 29.97 in 10.0 mi ESE 11.5 mph - N/A   Clear
1:35 PM 73.4 °F 50.0 °F 44% 29.97 in 10.0 mi ESE 9.2 mph - N/A   Clear
1:55 PM 73.6 °F 50.2 °F 44% 29.97 in 10.0 mi East 5.8 mph - N/A   Clear
2:35 PM 73.6 °F 49.8 °F 43% 29.97 in 10.0 mi SSE 4.6 mph - N/A   Clear
3:35 PM 73.6 °F 49.1 °F 42% 29.95 in 10.0 mi NE 4.6 mph - N/A   Clear
4:15 PM 74.5 °F 48.6 °F 40% 29.95 in 10.0 mi NE 3.5 mph - N/A   Clear
4:55 PM 74.5 °F 50.0 °F 42% 29.94 in 10.0 mi Calm Calm - N/A   Clear
5:15 PM 73.8 °F 50.2 °F 43% 29.93 in 10.0 mi NE 3.5 mph - N/A   Clear
5:35 PM 75.2 °F 50.7 °F 42% 29.93 in 10.0 mi ESE 5.8 mph - N/A   Clear
6:15 PM 74.1 °F 50.9 °F 44% 29.92 in 10.0 mi East 3.5 mph - N/A   Clear
6:55 PM 73.4 °F 50.0 °F 44% 29.92 in 10.0 mi ESE 4.6 mph - N/A   Clear
7:15 PM 73.8 °F 49.6 °F 43% 29.92 in 10.0 mi Calm Calm - N/A   Clear
7:35 PM 72.7 °F 50.9 °F 46% 29.92 in 10.0 mi SE 4.6 mph - N/A   Clear
7:55 PM 70.9 °F 50.0 °F 48% 29.92 in 10.0 mi SE 4.6 mph - N/A   Clear
8:15 PM 70.2 °F 50.2 °F 49% 29.92 in 10.0 mi SE 3.5 mph - N/A   Clear
8:55 PM 67.6 °F 51.1 °F 55% 29.91 in 10.0 mi Calm Calm - N/A   Clear
9:15 PM 63.3 °F 52.5 °F 68% 29.91 in 10.0 mi Calm Calm - N/A   Clear
10:15 PM 59.9 °F 53.1 °F 78% 29.91 in 10.0 mi Calm Calm - N/A   Clear
10:35 PM 58.6 °F 53.6 °F 83% 29.90 in 10.0 mi Calm Calm - N/A   Clear
10:55 PM 58.1 °F 54.7 °F 88% 29.90 in 10.0 mi Calm Calm - N/A   Clear
11:35 PM 56.3 °F 54.3 °F 93% 29.89 in 10.0 mi East 4.6 mph - N/A   Clear
11:55 PM 55.6 °F 53.4 °F 92% 29.90 in 10.0 mi Calm Calm - N/A   Clear